Time;durP1;ratioP1;P1;durP2;ratioP2;P2;SDS_P1;SDS_P2;PMS_P1;PMS_P2;Temp;Humidity;BMP_temperature;BMP_pressure;BME280_temperature;BME280_humidity;BME280_pressure;Samples;Min_cycle;Max_cycle;Signal;HPM_P1;HPM_P2
2022/05/31 00:03:18;;;;;;;5.13;3.03;;;;;;;;;;10276050;28;20059;-63
2022/05/31 00:08:18;;;;;;;6.20;3.35;;;;;;;;;;10275765;28;20057;-63
2022/05/31 00:13:16;;;;;;;5.90;3.05;;;;;;;;;;10276352;28;20072;-63
2022/05/31 00:18:15;;;;;;;4.40;3.40;;;;;;;;;;10275222;28;20052;-63
2022/05/31 00:23:13;;;;;;;3.85;3.45;;;;;;;;;;10275288;28;20418;-63
2022/05/31 00:28:13;;;;;;;7.65;3.53;;;;;;;;;;10275054;28;20517;-63
2022/05/31 00:33:11;;;;;;;4.60;3.80;;;;;;;;;;10273963;28;20418;-63
2022/05/31 00:38:10;;;;;;;4.35;3.03;;;;;;;;;;10275219;28;20179;-63
2022/05/31 00:43:10;;;;;;;5.90;3.03;;;;;;;;;;10274715;28;20057;-63
2022/05/31 00:48:12;;;;;;;6.10;3.63;;;;;;;;;;10274502;28;20148;-63
2022/05/31 00:53:11;;;;;;;5.28;3.22;;;;;;;;;;10273860;28;20053;-63
2022/05/31 00:58:11;;;;;;;5.47;3.33;;;;;;;;;;10273915;28;20052;-63
2022/05/31 01:03:13;;;;;;;5.75;4.78;;;;;;;;;;10266125;28;20069;-63
2022/05/31 01:08:12;;;;;;;7.32;3.67;;;;;;;;;;10242887;28;20091;-63
2022/05/31 01:13:30;;;;;;;4.28;3.30;;;;;;;;;;10256295;28;20084;-64
2022/05/31 01:18:49;;;;;;;9.23;3.55;;;;;;;;;;10256890;28;20084;-65
2022/05/31 01:24:10;;;;;;;5.28;3.65;;;;;;;;;;10242639;28;20053;-64
2022/05/31 01:29:13;;;;;;;3.75;3.35;;;;;;;;;;10240915;28;20064;-64
2022/05/31 01:34:15;;;;;;;6.13;3.53;;;;;;;;;;10239891;28;20081;-64
2022/05/31 01:39:18;;;;;;;3.65;3.13;;;;;;;;;;10240463;28;20045;-64
2022/05/31 01:44:18;;;;;;;4.57;3.50;;;;;;;;;;10240324;28;20045;-63
2022/05/31 01:49:17;;;;;;;6.88;3.72;;;;;;;;;;10240142;28;20076;-63
2022/05/31 01:54:17;;;;;;;4.95;3.40;;;;;;;;;;10240073;28;20494;-63
2022/05/31 01:59:17;;;;;;;3.88;3.20;;;;;;;;;;10238191;28;20053;-64
2022/05/31 02:04:15;;;;;;;3.63;3.03;;;;;;;;;;10238235;28;20046;-64
2022/05/31 02:09:15;;;;;;;8.50;3.90;;;;;;;;;;10238856;28;20045;-64
2022/05/31 02:14:17;;;;;;;6.82;3.50;;;;;;;;;;10237426;28;20061;-63
2022/05/31 02:19:23;;;;;;;3.70;3.28;;;;;;;;;;10236954;28;20482;-63
2022/05/31 02:24:28;;;;;;;4.22;3.83;;;;;;;;;;10237500;28;20046;-63
2022/05/31 02:29:29;;;;;;;8.38;6.95;;;;;;;;;;10237590;28;20058;-63
2022/05/31 02:34:28;;;;;;;6.50;4.30;;;;;;;;;;10251758;28;20477;-65
2022/05/31 02:39:27;;;;;;;4.95;3.47;;;;;;;;;;10237789;28;20069;-64
2022/05/31 02:44:26;;;;;;;4.65;3.88;;;;;;;;;;10236586;28;20045;-63
2022/05/31 02:49:26;;;;;;;4.25;3.85;;;;;;;;;;10236538;28;20057;-63
2022/05/31 02:54:25;;;;;;;4.53;3.67;;;;;;;;;;10236568;28;20065;-63
2022/05/31 02:59:42;;;;;;;5.03;3.50;;;;;;;;;;10245014;28;20052;-64
2022/05/31 03:05:17;;;;;;;5.72;3.50;;;;;;;;;;10239558;28;20092;-63
2022/05/31 03:10:21;;;;;;;3.97;3.58;;;;;;;;;;10242747;28;20049;-63
2022/05/31 03:15:20;;;;;;;4.38;3.33;;;;;;;;;;10235771;28;20137;-63
2022/05/31 03:20:21;;;;;;;6.40;3.75;;;;;;;;;;10237009;28;20045;-63
2022/05/31 03:25:21;;;;;;;9.77;3.92;;;;;;;;;;10236577;28;20041;-63
2022/05/31 03:30:19;;;;;;;6.35;4.00;;;;;;;;;;10236818;28;20077;-63
2022/05/31 03:35:19;;;;;;;7.05;3.90;;;;;;;;;;10236645;28;20085;-62
2022/05/31 03:45:32;;;;;;;7.30;4.30;;;;;;;;;;10233907;28;20430;-63
2022/05/31 03:51:02;;;;;;;5.82;3.97;;;;;;;;;;10235507;28;20065;-63
2022/05/31 03:56:01;;;;;;;5.13;3.33;;;;;;;;;;10234342;28;20197;-63
2022/05/31 04:01:01;;;;;;;4.95;3.60;;;;;;;;;;10247513;28;20072;-62
2022/05/31 04:05:59;;;;;;;7.43;5.80;;;;;;;;;;10234353;28;20060;-63
2022/05/31 04:10:59;;;;;;;18.98;17.00;;;;;;;;;;10233840;28;20045;-63
2022/05/31 04:16:05;;;;;;;13.43;6.20;;;;;;;;;;10247652;28;20104;-63
2022/05/31 04:21:07;;;;;;;16.52;14.82;;;;;;;;;;10233473;28;20076;-63
2022/05/31 04:26:07;;;;;;;11.90;9.25;;;;;;;;;;10233049;28;20498;-63
2022/05/31 04:31:26;;;;;;;12.63;8.75;;;;;;;;;;10234448;28;20080;-63
2022/05/31 04:36:47;;;;;;;5.68;4.32;;;;;;;;;;10235003;28;20061;-63
2022/05/31 04:41:49;;;;;;;7.82;6.57;;;;;;;;;;10233252;28;20422;-63
2022/05/31 04:46:53;;;;;;;6.70;4.47;;;;;;;;;;10245355;28;20072;-62
2022/05/31 04:52:05;;;;;;;7.05;5.28;;;;;;;;;;10261456;28;20087;-63
2022/05/31 04:57:14;;;;;;;8.15;4.88;;;;;;;;;;10256668;28;20426;-62
2022/05/31 05:02:12;;;;;;;7.20;5.25;;;;;;;;;;10238721;28;20422;-62
2022/05/31 05:07:16;;;;;;;;;;;;;;;;;;10239128;28;20096;-63
2022/05/31 05:12:16;;;;;;;8.43;7.47;;;;;;;;;;10245326;28;20248;-62
2022/05/31 05:17:18;;;;;;;7.03;6.33;;;;;;;;;;10264539;28;20514;-62
2022/05/31 05:22:19;;;;;;;12.30;9.10;;;;;;;;;;10272014;28;20334;-63
2022/05/31 05:27:19;;;;;;;8.70;6.90;;;;;;;;;;10262862;28;20088;-63
2022/05/31 05:32:23;;;;;;;7.97;6.05;;;;;;;;;;10246589;28;20045;-62
2022/05/31 05:37:44;;;;;;;8.73;5.82;;;;;;;;;;10279427;28;20561;-63
2022/05/31 05:42:47;;;;;;;7.60;4.53;;;;;;;;;;10275316;28;20539;-63
2022/05/31 05:48:10;;;;;;;11.05;4.80;;;;;;;;;;10251983;28;20044;-62
2022/05/31 05:53:09;;;;;;;11.32;8.68;;;;;;;;;;10275258;28;20045;-62
2022/05/31 05:58:27;;;;;;;10.18;5.43;;;;;;;;;;10243547;28;20072;-63
2022/05/31 06:03:58;;;;;;;9.88;5.88;;;;;;;;;;10274323;28;20418;-63
2022/05/31 06:09:01;;;;;;;6.72;5.07;;;;;;;;;;10264935;28;20049;-62
2022/05/31 06:14:02;;;;;;;8.68;5.40;;;;;;;;;;10273743;28;20494;-62
2022/05/31 06:19:05;;;;;;;9.65;4.65;;;;;;;;;;10272247;28;20064;-64
2022/05/31 06:24:03;;;;;;;6.75;5.70;;;;;;;;;;10277937;28;20076;-63
2022/05/31 06:29:04;;;;;;;16.08;6.15;;;;;;;;;;10276792;28;20049;-64
2022/05/31 06:34:03;;;;;;;6.50;4.90;;;;;;;;;;10277499;28;20516;-63
2022/05/31 06:39:24;;;;;;;10.98;5.43;;;;;;;;;;10277789;28;20091;-63
2022/05/31 06:44:25;;;;;;;7.78;5.50;;;;;;;;;;10277444;28;20068;-64
2022/05/31 06:49:42;;;;;;;6.07;4.95;;;;;;;;;;10286361;28;20049;-63
2022/05/31 07:01:07;;;;;;;11.87;5.83;;;;;;;;;;10184588;28;20118;-63
2022/05/31 07:06:06;;;;;;;7.43;5.55;;;;;;;;;;10254795;28;20041;-62
2022/05/31 07:11:07;;;;;;;7.82;5.75;;;;;;;;;;10276025;28;20052;-63
2022/05/31 07:16:24;;;;;;;7.88;5.70;;;;;;;;;;10276988;28;20076;-63
2022/05/31 07:21:26;;;;;;;9.27;5.82;;;;;;;;;;10280250;28;20077;-64
2022/05/31 07:26:26;;;;;;;8.00;6.20;;;;;;;;;;10275705;28;20494;-64
2022/05/31 07:31:37;;;;;;;7.35;5.57;;;;;;;;;;10275898;28;20064;-63
2022/05/31 07:36:54;;;;;;;9.07;6.10;;;;;;;;;;10275249;28;20060;-63
2022/05/31 07:41:54;;;;;;;9.32;5.32;;;;;;;;;;10275206;28;20083;-63
2022/05/31 07:46:54;;;;;;;8.50;5.90;;;;;;;;;;10269214;28;20056;-63
2022/05/31 07:51:54;;;;;;;7.25;6.57;;;;;;;;;;10240723;28;20057;-63
2022/05/31 07:58:30;;;;;;;9.25;5.95;;;;;;;;;;10236687;28;20104;-63
2022/05/31 08:02:50;;;;;;;7.70;6.13;;;;;;;;;;10244831;28;20080;-63
2022/05/31 08:07:49;;;;;;;7.97;5.93;;;;;;;;;;10243563;28;20045;-63
2022/05/31 08:12:47;;;;;;;14.40;6.40;;;;;;;;;;10234602;28;20061;-65
2022/05/31 08:17:46;;;;;;;7.85;6.82;;;;;;;;;;10235949;28;20061;-63
2022/05/31 08:22:46;;;;;;;8.15;7.35;;;;;;;;;;10243513;28;20053;-63
2022/05/31 08:27:44;;;;;;;10.95;6.65;;;;;;;;;;10243658;28;20548;-64
2022/05/31 08:32:42;;;;;;;9.20;6.68;;;;;;;;;;10243658;28;20517;-63
2022/05/31 08:37:41;;;;;;;8.30;6.38;;;;;;;;;;10242979;28;20053;-63
2022/05/31 08:42:49;;;;;;;10.68;6.28;;;;;;;;;;10242700;28;20055;-64
2022/05/31 08:47:51;;;;;;;10.77;5.95;;;;;;;;;;10242111;28;20045;-63
2022/05/31 08:52:57;;;;;;;9.23;6.57;;;;;;;;;;10241933;28;20085;-63
2022/05/31 08:57:59;;;;;;;11.85;7.07;;;;;;;;;;10241940;28;20045;-63
2022/05/31 09:03:03;;;;;;;8.10;6.68;;;;;;;;;;10242379;28;20064;-63
2022/05/31 09:08:02;;;;;;;;;;;;;;;;;;10241909;28;20048;-63
2022/05/31 09:13:06;;;;;;;7.80;6.78;;;;;;;;;;10241160;28;19968;-63
2022/05/31 09:18:08;;;;;;;7.32;6.57;;;;;;;;;;10255121;28;20077;-63
2022/05/31 09:23:06;;;;;;;10.45;6.97;;;;;;;;;;10240716;28;20045;-63
2022/05/31 09:28:11;;;;;;;11.00;7.22;;;;;;;;;;10240737;28;20084;-64
2022/05/31 09:33:16;;;;;;;9.33;8.43;;;;;;;;;;10250553;28;20085;-64
2022/05/31 09:38:23;;;;;;;10.27;6.78;;;;;;;;;;10240637;28;20084;-64
2022/05/31 09:43:25;;;;;;;8.38;7.47;;;;;;;;;;10240246;28;20050;-65
2022/05/31 09:48:23;;;;;;;12.95;7.47;;;;;;;;;;10239999;28;20049;-64
2022/05/31 09:59:07;;;;;;;12.98;8.00;;;;;;;;;;10238530;28;20053;-64
2022/05/31 10:04:26;;;;;;;;;;;;;;;;;;10240262;28;20057;-64
2022/05/31 10:09:30;;;;;;;9.68;7.38;;;;;;;;;;10239437;28;20309;-64
2022/05/31 10:14:33;;;;;;;8.10;7.05;;;;;;;;;;10239078;28;20084;-65
2022/05/31 10:19:31;;;;;;;9.20;6.80;;;;;;;;;;10239385;28;20081;-64
2022/05/31 10:24:30;;;;;;;8.15;7.00;;;;;;;;;;10238917;28;20053;-65
2022/05/31 10:29:49;;;;;;;12.75;7.53;;;;;;;;;;10244711;28;20053;-64
2022/05/31 10:35:07;;;;;;;9.77;6.72;;;;;;;;;;10238538;28;20081;-64
2022/05/31 10:40:07;;;;;;;11.02;7.65;;;;;;;;;;10238077;28;20041;-65
2022/05/31 10:45:08;;;;;;;9.00;6.78;;;;;;;;;;10238104;28;20084;-64
2022/05/31 10:50:08;;;;;;;10.60;7.50;;;;;;;;;;10251632;28;20073;-65
2022/05/31 10:55:14;;;;;;;9.60;6.38;;;;;;;;;;10238232;28;20084;-65
2022/05/31 11:00:17;;;;;;;9.00;6.18;;;;;;;;;;10245997;28;20102;-65
2022/05/31 11:05:17;;;;;;;7.78;6.60;;;;;;;;;;10238464;28;20042;-64
2022/05/31 11:15:50;;;;;;;10.18;6.45;;;;;;;;;;10247961;28;20076;-65
2022/05/31 11:20:52;;;;;;;7.35;6.60;;;;;;;;;;10237792;28;20049;-65
2022/05/31 11:25:55;;;;;;;7.53;6.57;;;;;;;;;;10237452;28;20056;-64
2022/05/31 11:31:24;;;;;;;14.17;6.93;;;;;;;;;;10250061;28;20061;-65
2022/05/31 11:36:27;;;;;;;8.48;6.03;;;;;;;;;;10236917;28;20077;-64
2022/05/31 11:41:33;;;;;;;6.72;6.03;;;;;;;;;;10250526;28;20073;-65
2022/05/31 11:46:36;;;;;;;7.78;5.25;;;;;;;;;;10236775;28;20088;-64
2022/05/31 11:51:45;;;;;;;8.55;7.07;;;;;;;;;;10250453;28;20045;-64
2022/05/31 11:56:46;;;;;;;11.52;7.22;;;;;;;;;;10236586;28;20073;-64
2022/05/31 12:01:50;;;;;;;9.52;5.97;;;;;;;;;;10236355;28;20048;-65
2022/05/31 12:06:49;;;;;;;7.88;6.47;;;;;;;;;;10236065;28;20065;-65
2022/05/31 12:11:51;;;;;;;13.85;7.47;;;;;;;;;;10235915;28;20061;-64
2022/05/31 12:16:51;;;;;;;11.82;6.53;;;;;;;;;;10235873;28;20495;-64
2022/05/31 12:21:52;;;;;;;8.77;6.30;;;;;;;;;;10236231;28;20057;-64
2022/05/31 12:26:53;;;;;;;8.07;6.80;;;;;;;;;;10240943;28;20076;-64
2022/05/31 12:31:53;;;;;;;6.80;6.18;;;;;;;;;;10243792;28;20060;-64
2022/05/31 12:37:00;;;;;;;6.93;6.15;;;;;;;;;;10235327;28;20079;-64
2022/05/31 12:41:58;;;;;;;14.05;5.97;;;;;;;;;;10235411;28;20045;-64
2022/05/31 12:47:09;;;;;;;7.45;5.70;;;;;;;;;;10235242;28;20065;-64
2022/05/31 12:52:21;;;;;;;7.68;5.95;;;;;;;;;;10235157;28;20056;-64
2022/05/31 12:57:21;;;;;;;8.68;6.28;;;;;;;;;;10235150;28;20088;-64
2022/05/31 13:02:38;;;;;;;15.23;6.57;;;;;;;;;;10238868;28;20327;-64
2022/05/31 13:07:46;;;;;;;6.93;6.22;;;;;;;;;;10248876;28;20069;-65
2022/05/31 13:23:20;;;;;;;13.20;8.05;;;;;;;;;;10249536;28;20061;-65
2022/05/31 13:28:23;;;;;;;7.97;6.32;;;;;;;;;;10241179;28;20080;-64
2022/05/31 13:33:24;;;;;;;7.68;6.97;;;;;;;;;;10241758;28;20064;-64
2022/05/31 13:38:23;;;;;;;14.63;6.60;;;;;;;;;;10241077;28;20077;-64
2022/05/31 13:43:23;;;;;;;13.45;8.13;;;;;;;;;;10240725;28;20048;-65
2022/05/31 13:48:24;;;;;;;17.20;8.05;;;;;;;;;;10240060;28;20049;-65
2022/05/31 13:53:22;;;;;;;11.77;8.52;;;;;;;;;;10244235;28;20095;-65
2022/05/31 13:58:23;;;;;;;13.52;7.28;;;;;;;;;;10248445;28;20073;-65
2022/05/31 14:03:24;;;;;;;8.75;6.40;;;;;;;;;;10239581;28;20490;-64
2022/05/31 14:08:26;;;;;;;13.82;6.60;;;;;;;;;;10243943;28;20073;-64
2022/05/31 14:13:26;;;;;;;8.63;6.68;;;;;;;;;;10247793;28;20503;-64
2022/05/31 14:18:26;;;;;;;8.60;6.20;;;;;;;;;;10238297;28;20473;-64
2022/05/31 14:23:25;;;;;;;6.85;6.05;;;;;;;;;;10238830;28;20053;-64
2022/05/31 14:28:25;;;;;;;8.13;6.28;;;;;;;;;;10238647;28;20401;-65
2022/05/31 14:33:25;;;;;;;11.02;7.88;;;;;;;;;;10238583;28;20042;-64
2022/05/31 14:38:26;;;;;;;8.73;6.30;;;;;;;;;;10238163;28;20505;-65
2022/05/31 14:43:29;;;;;;;7.18;6.13;;;;;;;;;;10237989;28;20845;-65
2022/05/31 14:48:31;;;;;;;13.57;6.63;;;;;;;;;;10238532;28;20111;-65
2022/05/31 14:53:41;;;;;;;9.15;6.30;;;;;;;;;;10238398;28;20057;-64
2022/05/31 14:58:45;;;;;;;13.98;6.30;;;;;;;;;;10237137;28;20077;-64
2022/05/31 15:03:46;;;;;;;10.15;6.43;;;;;;;;;;10237666;28;20080;-64
2022/05/31 15:09:00;;;;;;;12.63;6.75;;;;;;;;;;10237272;28;20518;-64
2022/05/31 15:19:24;;;;;;;8.00;6.43;;;;;;;;;;10236870;28;20487;-64
2022/05/31 15:24:26;;;;;;;10.35;8.45;;;;;;;;;;10241409;28;20076;-65
2022/05/31 15:29:24;;;;;;;10.40;6.10;;;;;;;;;;10244554;28;20057;-65
2022/05/31 15:34:22;;;;;;;9.57;6.60;;;;;;;;;;10236157;28;20108;-64
2022/05/31 15:39:20;;;;;;;8.65;5.68;;;;;;;;;;10236132;28;20077;-64
2022/05/31 15:44:20;;;;;;;6.20;5.45;;;;;;;;;;10236247;28;20077;-64
2022/05/31 15:49:18;;;;;;;9.30;8.32;;;;;;;;;;10257081;28;20076;-64
2022/05/31 15:54:18;;;;;;;8.70;6.75;;;;;;;;;;10247395;28;20075;-64
2022/05/31 15:59:21;;;;;;;11.10;6.97;;;;;;;;;;10235187;28;20088;-64
2022/05/31 16:04:20;;;;;;;12.55;6.30;;;;;;;;;;10235606;28;20417;-64
2022/05/31 16:09:20;;;;;;;9.30;7.10;;;;;;;;;;10232436;28;20080;-65
2022/05/31 16:14:20;;;;;;;8.02;7.20;;;;;;;;;;10233548;28;20095;-64
2022/05/31 16:19:20;;;;;;;16.35;11.90;;;;;;;;;;10235450;28;20089;-64
2022/05/31 16:24:20;;;;;;;8.10;6.40;;;;;;;;;;10234879;28;20494;-63
2022/05/31 16:29:19;;;;;;;9.35;5.93;;;;;;;;;;10248203;28;20057;-64
2022/05/31 16:34:18;;;;;;;11.63;10.43;;;;;;;;;;10234847;28;20038;-64
2022/05/31 16:44:36;;;;;;;10.95;6.70;;;;;;;;;;10243174;28;20045;-64
2022/05/31 16:49:34;;;;;;;10.45;8.20;;;;;;;;;;10242606;28;20163;-64
2022/05/31 16:54:34;;;;;;;9.93;8.13;;;;;;;;;;10242496;28;20036;-65
2022/05/31 16:59:33;;;;;;;11.95;7.72;;;;;;;;;;10241677;28;20077;-65
2022/05/31 17:04:32;;;;;;;13.48;8.90;;;;;;;;;;10241455;28;20076;-65
2022/05/31 17:14:49;;;;;;;13.32;6.85;;;;;;;;;;10241732;28;20491;-64
2022/05/31 17:19:47;;;;;;;18.40;7.00;;;;;;;;;;10241376;28;20497;-64
2022/05/31 17:24:46;;;;;;;12.68;5.18;;;;;;;;;;10241140;28;20092;-64
2022/05/31 17:29:44;;;;;;;17.40;5.45;;;;;;;;;;10241302;28;20065;-64
2022/05/31 17:35:04;;;;;;;12.07;7.07;;;;;;;;;;10241449;28;20407;-64
2022/05/31 17:40:02;;;;;;;8.25;4.65;;;;;;;;;;10240871;28;20073;-64
2022/05/31 17:45:01;;;;;;;6.60;3.80;;;;;;;;;;10240649;28;20049;-64
2022/05/31 17:49:59;;;;;;;13.77;4.80;;;;;;;;;;10240360;28;20041;-64
2022/05/31 17:54:59;;;;;;;7.97;5.43;;;;;;;;;;10240930;28;20355;-64
2022/05/31 17:59:57;;;;;;;6.78;4.20;;;;;;;;;;10239555;28;20077;-65
2022/05/31 18:04:56;;;;;;;9.43;4.43;;;;;;;;;;10239416;28;20058;-64
2022/05/31 18:09:54;;;;;;;8.27;5.38;;;;;;;;;;10239870;28;20053;-64
2022/05/31 18:14:54;;;;;;;6.97;4.20;;;;;;;;;;10239428;28;20049;-64
2022/05/31 18:19:53;;;;;;;7.28;4.97;;;;;;;;;;10239248;28;20525;-64
2022/05/31 18:24:56;;;;;;;10.35;3.70;;;;;;;;;;10239254;28;20037;-64
2022/05/31 18:29:59;;;;;;;8.27;5.40;;;;;;;;;;10239180;28;20050;-64
2022/05/31 18:35:00;;;;;;;9.68;4.45;;;;;;;;;;10238915;28;20041;-64
2022/05/31 18:45:16;;;;;;;10.23;3.63;;;;;;;;;;10238822;28;20046;-64
2022/05/31 18:50:15;;;;;;;10.63;4.20;;;;;;;;;;10238621;28;20051;-64
2022/05/31 18:55:14;;;;;;;15.60;4.18;;;;;;;;;;10238106;28;20072;-64
2022/05/31 19:00:13;;;;;;;10.35;3.17;;;;;;;;;;10237340;28;20084;-63
2022/05/31 19:05:14;;;;;;;15.20;3.50;;;;;;;;;;10237491;28;20057;-64
2022/05/31 19:10:13;;;;;;;6.30;3.30;;;;;;;;;;10237337;28;20053;-64
2022/05/31 19:15:13;;;;;;;16.63;4.15;;;;;;;;;;10236982;28;20052;-64
2022/05/31 19:20:14;;;;;;;9.75;3.47;;;;;;;;;;10236249;28;20139;-64
2022/05/31 19:25:14;;;;;;;5.65;3.90;;;;;;;;;;10236791;28;20088;-63
2022/05/31 19:30:12;;;;;;;10.18;4.07;;;;;;;;;;10237194;28;20081;-63
2022/05/31 19:35:12;;;;;;;5.53;3.92;;;;;;;;;;10236462;28;20079;-64
2022/05/31 19:40:12;;;;;;;12.57;4.88;;;;;;;;;;10236180;28;20053;-64
2022/05/31 19:45:16;;;;;;;9.05;4.43;;;;;;;;;;10235936;28;20045;-64
2022/05/31 19:50:15;;;;;;;15.07;4.55;;;;;;;;;;10236069;28;20414;-64
2022/05/31 19:55:15;;;;;;;5.43;3.13;;;;;;;;;;10235863;28;20418;-64
2022/05/31 20:00:15;;;;;;;5.05;2.80;;;;;;;;;;10235714;28;20081;-64
2022/05/31 20:05:14;;;;;;;6.15;3.15;;;;;;;;;;10235889;28;20045;-64
2022/05/31 20:10:16;;;;;;;3.80;2.38;;;;;;;;;;10240235;28;20087;-64
2022/05/31 20:15:20;;;;;;;6.97;2.50;;;;;;;;;;10263413;28;20048;-64
2022/05/31 20:20:18;;;;;;;4.53;3.05;;;;;;;;;;10275792;28;20076;-64
2022/05/31 20:25:19;;;;;;;7.47;3.25;;;;;;;;;;10273926;28;20061;-64
2022/05/31 20:30:17;;;;;;;4.03;3.05;;;;;;;;;;10276184;28;20079;-64
2022/05/31 20:35:16;;;;;;;7.82;3.17;;;;;;;;;;10273648;28;20422;-64
2022/05/31 20:40:16;;;;;;;8.05;3.92;;;;;;;;;;10259949;28;20072;-64
2022/05/31 20:45:16;;;;;;;6.00;3.85;;;;;;;;;;10272459;28;20069;-64
2022/05/31 20:50:14;;;;;;;13.20;3.78;;;;;;;;;;10274275;28;20049;-62
2022/05/31 20:55:13;;;;;;;7.63;4.35;;;;;;;;;;10273932;28;20076;-63
2022/05/31 21:00:12;;;;;;;6.68;3.90;;;;;;;;;;10272875;28;20433;-64
2022/05/31 21:05:12;;;;;;;4.93;3.78;;;;;;;;;;10240849;28;20055;-65
2022/05/31 21:10:10;;;;;;;8.32;3.58;;;;;;;;;;10234386;28;20081;-64
2022/05/31 21:15:10;;;;;;;7.88;3.95;;;;;;;;;;10234320;28;20045;-65
2022/05/31 21:20:09;;;;;;;4.85;3.35;;;;;;;;;;10246519;28;20069;-63
2022/05/31 21:25:13;;;;;;;5.28;3.35;;;;;;;;;;10235470;28;20046;-63
2022/05/31 21:30:12;;;;;;;4.13;3.33;;;;;;;;;;10237263;28;20084;-62
2022/05/31 21:35:25;;;;;;;8.48;3.90;;;;;;;;;;10240952;28;20487;-62
2022/05/31 21:45:42;;;;;;;4.40;2.85;;;;;;;;;;10240101;28;20073;-63
2022/05/31 21:50:44;;;;;;;4.85;3.67;;;;;;;;;;10239903;28;20073;-63
2022/05/31 21:55:44;;;;;;;5.00;2.78;;;;;;;;;;10249057;28;20065;-63
2022/05/31 22:00:59;;;;;;;6.50;3.28;;;;;;;;;;10253443;28;20088;-63
2022/05/31 22:05:59;;;;;;;8.88;2.90;;;;;;;;;;10239924;28;20087;-63
2022/05/31 22:10:59;;;;;;;14.13;3.10;;;;;;;;;;10238746;28;20053;-62
2022/05/31 22:15:57;;;;;;;7.70;2.97;;;;;;;;;;10239693;28;20041;-62
2022/05/31 22:20:56;;;;;;;4.35;3.28;;;;;;;;;;10239143;28;20085;-63
2022/05/31 22:25:57;;;;;;;8.50;3.40;;;;;;;;;;10252553;28;20066;-63
2022/05/31 22:30:56;;;;;;;5.53;3.40;;;;;;;;;;10236655;28;20064;-63
2022/05/31 22:36:08;;;;;;;4.95;3.05;;;;;;;;;;10248793;28;20131;-63
2022/05/31 22:41:11;;;;;;;8.63;3.33;;;;;;;;;;10238479;28;20080;-63
2022/05/31 22:46:11;;;;;;;4.75;2.92;;;;;;;;;;10239517;28;20067;-63
2022/05/31 22:51:09;;;;;;;7.10;3.20;;;;;;;;;;10249699;28;20092;-63
2022/05/31 22:56:07;;;;;;;4.63;3.05;;;;;;;;;;10237577;28;20060;-63
2022/05/31 23:01:08;;;;;;;7.88;3.25;;;;;;;;;;10237599;28;20081;-63
2022/05/31 23:06:09;;;;;;;5.20;3.67;;;;;;;;;;10237640;28;20053;-63
2022/05/31 23:11:07;;;;;;;4.75;3.50;;;;;;;;;;10237261;28;20057;-63
2022/05/31 23:16:06;;;;;;;5.93;3.15;;;;;;;;;;10237110;28;20041;-62
2022/05/31 23:21:06;;;;;;;10.00;3.75;;;;;;;;;;10237008;28;20087;-62
2022/05/31 23:26:06;;;;;;;5.80;4.43;;;;;;;;;;10236748;28;20037;-62
2022/05/31 23:31:06;;;;;;;6.28;3.75;;;;;;;;;;10236809;28;20049;-62
2022/05/31 23:36:06;;;;;;;7.55;4.47;;;;;;;;;;10236560;28;20042;-63
2022/05/31 23:41:05;;;;;;;8.82;4.22;;;;;;;;;;10236178;28;20073;-63
2022/05/31 23:46:04;;;;;;;7.13;4.50;;;;;;;;;;10236275;28;20049;-63
2022/05/31 23:51:02;;;;;;;7.43;5.15;;;;;;;;;;10234711;28;20085;-63
2022/05/31 23:56:00;;;;;;;11.23;4.95;;;;;;;;;;10234877;28;20045;-63
